sensor_id;sensor_type;location;lat;lon;timestamp;P1;durP1;ratioP1;P2;durP2;ratioP2
769;SDS011;368;48.698;9.116;2023-02-28T00:01:19;4.50;;;4.10;;
769;SDS011;368;48.698;9.116;2023-02-28T00:03:46;4.72;;;3.67;;
769;SDS011;368;48.698;9.116;2023-02-28T00:06:13;5.63;;;3.70;;
769;SDS011;368;48.698;9.116;2023-02-28T00:08:40;5.07;;;4.32;;
769;SDS011;368;48.698;9.116;2023-02-28T00:11:07;5.80;;;4.13;;
769;SDS011;368;48.698;9.116;2023-02-28T00:13:37;4.65;;;4.05;;
769;SDS011;368;48.698;9.116;2023-02-28T00:16:06;4.47;;;4.07;;
769;SDS011;368;48.698;9.116;2023-02-28T00:18:35;4.70;;;3.72;;
769;SDS011;368;48.698;9.116;2023-02-28T00:21:02;5.68;;;4.95;;
769;SDS011;368;48.698;9.116;2023-02-28T00:23:29;4.82;;;4.43;;
769;SDS011;368;48.698;9.116;2023-02-28T00:25:56;4.50;;;4.10;;
769;SDS011;368;48.698;9.116;2023-02-28T00:28:23;5.32;;;4.90;;
769;SDS011;368;48.698;9.116;2023-02-28T00:30:52;5.35;;;4.20;;
769;SDS011;368;48.698;9.116;2023-02-28T00:33:18;5.68;;;4.25;;
769;SDS011;368;48.698;9.116;2023-02-28T00:35:45;4.88;;;4.30;;
769;SDS011;368;48.698;9.116;2023-02-28T00:38:13;4.53;;;3.97;;
769;SDS011;368;48.698;9.116;2023-02-28T00:40:40;4.80;;;3.83;;
769;SDS011;368;48.698;9.116;2023-02-28T00:43:07;5.00;;;4.15;;
769;SDS011;368;48.698;9.116;2023-02-28T00:45:34;5.18;;;4.40;;
769;SDS011;368;48.698;9.116;2023-02-28T00:48:02;5.68;;;4.90;;
769;SDS011;368;48.698;9.116;2023-02-28T00:50:29;4.95;;;4.55;;
769;SDS011;368;48.698;9.116;2023-02-28T00:52:56;4.90;;;4.35;;
769;SDS011;368;48.698;9.116;2023-02-28T00:55:22;6.53;;;4.28;;
769;SDS011;368;48.698;9.116;2023-02-28T00:57:49;4.38;;;3.97;;
769;SDS011;368;48.698;9.116;2023-02-28T01:00:16;4.60;;;4.03;;
769;SDS011;368;48.698;9.116;2023-02-28T01:02:43;5.30;;;4.80;;
769;SDS011;368;48.698;9.116;2023-02-28T01:05:11;4.30;;;3.90;;
769;SDS011;368;48.698;9.116;2023-02-28T01:07:38;4.15;;;3.70;;
769;SDS011;368;48.698;9.116;2023-02-28T01:10:05;6.80;;;4.38;;
769;SDS011;368;48.698;9.116;2023-02-28T01:12:33;4.70;;;4.30;;
769;SDS011;368;48.698;9.116;2023-02-28T01:15:00;4.50;;;4.10;;
769;SDS011;368;48.698;9.116;2023-02-28T01:17:26;4.90;;;4.50;;
769;SDS011;368;48.698;9.116;2023-02-28T01:19:53;5.13;;;4.10;;
769;SDS011;368;48.698;9.116;2023-02-28T01:22:22;5.40;;;4.90;;
769;SDS011;368;48.698;9.116;2023-02-28T01:24:48;6.05;;;4.75;;
769;SDS011;368;48.698;9.116;2023-02-28T01:27:15;5.03;;;4.53;;
769;SDS011;368;48.698;9.116;2023-02-28T01:29:42;4.57;;;4.18;;
769;SDS011;368;48.698;9.116;2023-02-28T01:32:09;5.15;;;4.72;;
769;SDS011;368;48.698;9.116;2023-02-28T01:34:36;4.47;;;4.18;;
769;SDS011;368;48.698;9.116;2023-02-28T01:37:03;7.35;;;6.07;;
769;SDS011;368;48.698;9.116;2023-02-28T01:39:31;5.78;;;4.88;;
769;SDS011;368;48.698;9.116;2023-02-28T01:41:58;4.90;;;4.40;;
769;SDS011;368;48.698;9.116;2023-02-28T01:47:21;4.88;;;4.57;;
769;SDS011;368;48.698;9.116;2023-02-28T01:49:50;7.90;;;5.70;;
769;SDS011;368;48.698;9.116;2023-02-28T01:52:18;6.20;;;5.60;;
769;SDS011;368;48.698;9.116;2023-02-28T01:54:47;6.28;;;4.63;;
769;SDS011;368;48.698;9.116;2023-02-28T01:57:19;5.60;;;5.15;;
769;SDS011;368;48.698;9.116;2023-02-28T01:59:50;6.32;;;5.70;;
769;SDS011;368;48.698;9.116;2023-02-28T02:02:20;6.07;;;5.47;;
769;SDS011;368;48.698;9.116;2023-02-28T02:04:50;5.82;;;5.28;;
769;SDS011;368;48.698;9.116;2023-02-28T02:07:20;8.35;;;5.82;;
769;SDS011;368;48.698;9.116;2023-02-28T02:09:49;5.53;;;5.03;;
769;SDS011;368;48.698;9.116;2023-02-28T02:12:22;5.32;;;4.72;;
769;SDS011;368;48.698;9.116;2023-02-28T02:14:56;7.13;;;6.57;;
769;SDS011;368;48.698;9.116;2023-02-28T02:17:32;6.65;;;6.05;;
769;SDS011;368;48.698;9.116;2023-02-28T02:26:08;9.73;;;6.10;;
769;SDS011;368;48.698;9.116;2023-02-28T02:29:01;5.45;;;4.95;;
769;SDS011;368;48.698;9.116;2023-02-28T02:31:56;7.22;;;6.25;;
769;SDS011;368;48.698;9.116;2023-02-28T02:34:52;7.38;;;6.13;;
769;SDS011;368;48.698;9.116;2023-02-28T02:37:27;6.00;;;5.45;;
769;SDS011;368;48.698;9.116;2023-02-28T02:40:02;6.32;;;5.82;;
769;SDS011;368;48.698;9.116;2023-02-28T02:42:38;6.18;;;5.32;;
769;SDS011;368;48.698;9.116;2023-02-28T02:45:09;6.05;;;4.85;;
769;SDS011;368;48.698;9.116;2023-02-28T02:47:38;7.03;;;6.32;;
769;SDS011;368;48.698;9.116;2023-02-28T02:50:11;6.82;;;5.82;;
769;SDS011;368;48.698;9.116;2023-02-28T02:52:44;6.28;;;5.35;;
769;SDS011;368;48.698;9.116;2023-02-28T02:55:15;6.55;;;6.05;;
769;SDS011;368;48.698;9.116;2023-02-28T02:57:45;6.78;;;5.38;;
769;SDS011;368;48.698;9.116;2023-02-28T03:00:15;6.00;;;5.45;;
769;SDS011;368;48.698;9.116;2023-02-28T03:02:44;6.40;;;5.80;;
769;SDS011;368;48.698;9.116;2023-02-28T03:05:17;5.63;;;5.05;;
769;SDS011;368;48.698;9.116;2023-02-28T03:07:47;6.88;;;6.18;;
769;SDS011;368;48.698;9.116;2023-02-28T03:10:27;7.00;;;6.30;;
769;SDS011;368;48.698;9.116;2023-02-28T03:13:00;6.45;;;5.85;;
769;SDS011;368;48.698;9.116;2023-02-28T03:15:39;6.22;;;5.63;;
769;SDS011;368;48.698;9.116;2023-02-28T03:18:19;7.45;;;6.75;;
769;SDS011;368;48.698;9.116;2023-02-28T03:20:59;6.90;;;6.20;;
769;SDS011;368;48.698;9.116;2023-02-28T03:23:34;6.75;;;6.25;;
769;SDS011;368;48.698;9.116;2023-02-28T03:26:11;8.13;;;7.32;;
769;SDS011;368;48.698;9.116;2023-02-28T03:28:43;7.25;;;6.63;;
769;SDS011;368;48.698;9.116;2023-02-28T03:31:18;7.35;;;6.65;;
769;SDS011;368;48.698;9.116;2023-02-28T03:33:49;8.38;;;6.57;;
769;SDS011;368;48.698;9.116;2023-02-28T03:36:25;7.55;;;6.82;;
769;SDS011;368;48.698;9.116;2023-02-28T03:38:56;6.75;;;6.03;;
769;SDS011;368;48.698;9.116;2023-02-28T03:41:29;8.00;;;7.20;;
769;SDS011;368;48.698;9.116;2023-02-28T03:43:59;8.30;;;6.20;;
769;SDS011;368;48.698;9.116;2023-02-28T03:46:31;7.25;;;6.65;;
769;SDS011;368;48.698;9.116;2023-02-28T03:49:01;7.60;;;7.00;;
769;SDS011;368;48.698;9.116;2023-02-28T03:51:33;7.47;;;6.82;;
769;SDS011;368;48.698;9.116;2023-02-28T03:54:03;7.93;;;6.20;;
769;SDS011;368;48.698;9.116;2023-02-28T03:56:34;7.97;;;7.22;;
769;SDS011;368;48.698;9.116;2023-02-28T03:59:06;8.63;;;7.65;;
769;SDS011;368;48.698;9.116;2023-02-28T04:01:39;7.80;;;7.15;;
769;SDS011;368;48.698;9.116;2023-02-28T04:04:09;8.35;;;7.55;;
769;SDS011;368;48.698;9.116;2023-02-28T04:06:38;7.20;;;6.50;;
769;SDS011;368;48.698;9.116;2023-02-28T04:09:08;7.13;;;6.43;;
769;SDS011;368;48.698;9.116;2023-02-28T04:11:37;9.13;;;7.05;;
769;SDS011;368;48.698;9.116;2023-02-28T04:14:05;6.85;;;6.25;;
769;SDS011;368;48.698;9.116;2023-02-28T04:16:34;8.90;;;8.10;;
769;SDS011;368;48.698;9.116;2023-02-28T04:19:02;6.97;;;6.32;;
769;SDS011;368;48.698;9.116;2023-02-28T04:21:30;7.65;;;6.95;;
769;SDS011;368;48.698;9.116;2023-02-28T04:23:59;7.97;;;7.30;;
769;SDS011;368;48.698;9.116;2023-02-28T04:26:29;8.75;;;7.85;;
769;SDS011;368;48.698;9.116;2023-02-28T04:28:56;7.32;;;6.63;;
769;SDS011;368;48.698;9.116;2023-02-28T04:31:23;8.20;;;6.90;;
769;SDS011;368;48.698;9.116;2023-02-28T04:33:50;7.70;;;6.80;;
769;SDS011;368;48.698;9.116;2023-02-28T04:36:17;8.80;;;8.00;;
769;SDS011;368;48.698;9.116;2023-02-28T04:38:44;7.05;;;6.45;;
769;SDS011;368;48.698;9.116;2023-02-28T04:41:13;7.80;;;6.97;;
769;SDS011;368;48.698;9.116;2023-02-28T04:43:40;7.55;;;6.95;;
769;SDS011;368;48.698;9.116;2023-02-28T04:46:07;7.97;;;7.18;;
769;SDS011;368;48.698;9.116;2023-02-28T04:48:36;7.05;;;6.45;;
769;SDS011;368;48.698;9.116;2023-02-28T04:51:04;8.57;;;7.82;;
769;SDS011;368;48.698;9.116;2023-02-28T04:53:32;9.43;;;6.68;;
769;SDS011;368;48.698;9.116;2023-02-28T04:55:59;8.48;;;7.68;;
769;SDS011;368;48.698;9.116;2023-02-28T04:58:28;8.73;;;7.53;;
769;SDS011;368;48.698;9.116;2023-02-28T05:00:57;7.55;;;6.68;;
769;SDS011;368;48.698;9.116;2023-02-28T05:03:28;8.85;;;8.05;;
769;SDS011;368;48.698;9.116;2023-02-28T05:05:54;7.60;;;6.78;;
769;SDS011;368;48.698;9.116;2023-02-28T05:08:21;7.75;;;6.80;;
769;SDS011;368;48.698;9.116;2023-02-28T05:10:48;10.15;;;7.22;;
769;SDS011;368;48.698;9.116;2023-02-28T05:13:15;8.77;;;7.70;;
769;SDS011;368;48.698;9.116;2023-02-28T05:15:43;8.18;;;6.95;;
769;SDS011;368;48.698;9.116;2023-02-28T05:18:10;10.00;;;6.93;;
769;SDS011;368;48.698;9.116;2023-02-28T05:20:36;7.30;;;6.68;;
769;SDS011;368;48.698;9.116;2023-02-28T05:23:03;7.93;;;7.15;;
769;SDS011;368;48.698;9.116;2023-02-28T05:25:30;10.45;;;7.53;;
769;SDS011;368;48.698;9.116;2023-02-28T05:27:57;9.48;;;7.43;;
769;SDS011;368;48.698;9.116;2023-02-28T05:30:24;7.65;;;6.93;;
769;SDS011;368;48.698;9.116;2023-02-28T05:32:52;7.43;;;6.82;;
769;SDS011;368;48.698;9.116;2023-02-28T05:35:18;7.70;;;6.90;;
769;SDS011;368;48.698;9.116;2023-02-28T05:37:45;9.45;;;7.50;;
769;SDS011;368;48.698;9.116;2023-02-28T05:40:12;7.97;;;7.28;;
769;SDS011;368;48.698;9.116;2023-02-28T05:42:40;8.38;;;7.60;;
769;SDS011;368;48.698;9.116;2023-02-28T05:45:07;8.50;;;7.80;;
769;SDS011;368;48.698;9.116;2023-02-28T05:47:35;8.98;;;7.97;;
769;SDS011;368;48.698;9.116;2023-02-28T05:50:04;8.77;;;7.20;;
769;SDS011;368;48.698;9.116;2023-02-28T05:52:32;9.93;;;8.93;;
769;SDS011;368;48.698;9.116;2023-02-28T05:54:59;9.70;;;8.80;;
769;SDS011;368;48.698;9.116;2023-02-28T05:57:25;8.57;;;7.82;;
769;SDS011;368;48.698;9.116;2023-02-28T05:59:52;12.35;;;9.93;;
769;SDS011;368;48.698;9.116;2023-02-28T06:02:19;9.70;;;7.60;;
769;SDS011;368;48.698;9.116;2023-02-28T06:04:46;9.93;;;8.20;;
769;SDS011;368;48.698;9.116;2023-02-28T06:07:14;8.40;;;7.65;;
769;SDS011;368;48.698;9.116;2023-02-28T06:09:42;9.48;;;8.50;;
769;SDS011;368;48.698;9.116;2023-02-28T06:12:09;8.90;;;8.00;;
769;SDS011;368;48.698;9.116;2023-02-28T06:14:36;8.15;;;7.10;;
769;SDS011;368;48.698;9.116;2023-02-28T06:17:03;9.48;;;8.63;;
769;SDS011;368;48.698;9.116;2023-02-28T06:19:30;9.65;;;8.10;;
769;SDS011;368;48.698;9.116;2023-02-28T06:21:57;12.27;;;8.55;;
769;SDS011;368;48.698;9.116;2023-02-28T06:24:26;9.02;;;7.78;;
769;SDS011;368;48.698;9.116;2023-02-28T06:26:54;9.45;;;8.45;;
769;SDS011;368;48.698;9.116;2023-02-28T06:29:20;11.32;;;8.25;;
769;SDS011;368;48.698;9.116;2023-02-28T06:31:47;11.18;;;9.15;;
769;SDS011;368;48.698;9.116;2023-02-28T06:34:14;9.65;;;8.25;;
769;SDS011;368;48.698;9.116;2023-02-28T06:36:41;9.57;;;8.57;;
769;SDS011;368;48.698;9.116;2023-02-28T06:39:09;11.38;;;9.30;;
769;SDS011;368;48.698;9.116;2023-02-28T06:41:37;13.07;;;9.23;;
769;SDS011;368;48.698;9.116;2023-02-28T06:44:05;9.90;;;7.45;;
769;SDS011;368;48.698;9.116;2023-02-28T06:46:35;10.77;;;8.90;;
769;SDS011;368;48.698;9.116;2023-02-28T06:49:02;10.40;;;8.35;;
769;SDS011;368;48.698;9.116;2023-02-28T06:51:30;9.68;;;8.30;;
769;SDS011;368;48.698;9.116;2023-02-28T06:53:56;10.18;;;9.02;;
769;SDS011;368;48.698;9.116;2023-02-28T06:56:23;12.32;;;9.32;;
769;SDS011;368;48.698;9.116;2023-02-28T06:58:51;8.82;;;8.02;;
769;SDS011;368;48.698;9.116;2023-02-28T07:01:18;9.88;;;8.93;;
769;SDS011;368;48.698;9.116;2023-02-28T07:03:47;11.43;;;9.65;;
769;SDS011;368;48.698;9.116;2023-02-28T07:06:17;9.65;;;8.65;;
769;SDS011;368;48.698;9.116;2023-02-28T07:08:44;10.45;;;9.45;;
769;SDS011;368;48.698;9.116;2023-02-28T07:11:11;11.13;;;10.00;;
769;SDS011;368;48.698;9.116;2023-02-28T07:13:38;11.05;;;9.90;;
769;SDS011;368;48.698;9.116;2023-02-28T07:16:06;9.50;;;8.60;;
769;SDS011;368;48.698;9.116;2023-02-28T07:18:35;12.55;;;11.00;;
769;SDS011;368;48.698;9.116;2023-02-28T07:21:03;11.32;;;10.13;;
769;SDS011;368;48.698;9.116;2023-02-28T07:23:31;14.73;;;10.25;;
769;SDS011;368;48.698;9.116;2023-02-28T07:25:58;10.07;;;8.40;;
769;SDS011;368;48.698;9.116;2023-02-28T07:28:25;9.13;;;8.30;;
769;SDS011;368;48.698;9.116;2023-02-28T07:30:52;12.57;;;10.18;;
769;SDS011;368;48.698;9.116;2023-02-28T07:33:21;11.63;;;9.35;;
769;SDS011;368;48.698;9.116;2023-02-28T07:35:48;15.13;;;11.80;;
769;SDS011;368;48.698;9.116;2023-02-28T07:38:15;11.82;;;10.40;;
769;SDS011;368;48.698;9.116;2023-02-28T07:40:42;11.88;;;10.75;;
769;SDS011;368;48.698;9.116;2023-02-28T07:43:09;12.13;;;10.37;;
769;SDS011;368;48.698;9.116;2023-02-28T07:45:35;11.40;;;10.10;;
769;SDS011;368;48.698;9.116;2023-02-28T07:48:02;13.57;;;10.95;;
769;SDS011;368;48.698;9.116;2023-02-28T07:50:31;12.15;;;10.52;;
769;SDS011;368;48.698;9.116;2023-02-28T07:52:58;10.40;;;9.40;;
769;SDS011;368;48.698;9.116;2023-02-28T07:55:25;11.48;;;10.35;;
769;SDS011;368;48.698;9.116;2023-02-28T07:57:51;11.57;;;10.35;;
769;SDS011;368;48.698;9.116;2023-02-28T08:00:18;12.63;;;9.95;;
769;SDS011;368;48.698;9.116;2023-02-28T08:02:46;9.45;;;8.55;;
769;SDS011;368;48.698;9.116;2023-02-28T08:05:13;11.40;;;10.30;;
769;SDS011;368;48.698;9.116;2023-02-28T08:07:41;11.48;;;9.75;;
769;SDS011;368;48.698;9.116;2023-02-28T08:10:10;10.65;;;9.55;;
769;SDS011;368;48.698;9.116;2023-02-28T08:12:37;12.05;;;10.85;;
769;SDS011;368;48.698;9.116;2023-02-28T08:15:04;14.35;;;10.98;;
769;SDS011;368;48.698;9.116;2023-02-28T08:17:31;11.60;;;10.43;;
769;SDS011;368;48.698;9.116;2023-02-28T08:19:58;11.57;;;10.17;;
769;SDS011;368;48.698;9.116;2023-02-28T08:22:25;11.43;;;9.57;;
769;SDS011;368;48.698;9.116;2023-02-28T08:24:53;12.43;;;8.88;;
769;SDS011;368;48.698;9.116;2023-02-28T08:27:20;7.40;;;6.07;;
769;SDS011;368;48.698;9.116;2023-02-28T08:29:47;14.38;;;10.10;;
769;SDS011;368;48.698;9.116;2023-02-28T08:32:14;11.53;;;9.83;;
769;SDS011;368;48.698;9.116;2023-02-28T08:34:41;11.93;;;10.73;;
769;SDS011;368;48.698;9.116;2023-02-28T08:37:07;10.45;;;8.80;;
769;SDS011;368;48.698;9.116;2023-02-28T08:39:34;15.23;;;10.47;;
769;SDS011;368;48.698;9.116;2023-02-28T08:42:03;13.82;;;11.18;;
769;SDS011;368;48.698;9.116;2023-02-28T08:44:30;11.95;;;9.55;;
769;SDS011;368;48.698;9.116;2023-02-28T08:46:57;12.93;;;10.83;;
769;SDS011;368;48.698;9.116;2023-02-28T08:49:24;10.10;;;9.00;;
769;SDS011;368;48.698;9.116;2023-02-28T08:51:50;13.07;;;10.52;;
769;SDS011;368;48.698;9.116;2023-02-28T08:54:17;12.68;;;9.80;;
769;SDS011;368;48.698;9.116;2023-02-28T08:56:44;13.17;;;10.70;;
769;SDS011;368;48.698;9.116;2023-02-28T08:59:13;12.17;;;10.87;;
769;SDS011;368;48.698;9.116;2023-02-28T09:01:40;14.20;;;11.00;;
769;SDS011;368;48.698;9.116;2023-02-28T09:04:08;11.80;;;10.60;;
769;SDS011;368;48.698;9.116;2023-02-28T09:06:36;11.17;;;9.83;;
769;SDS011;368;48.698;9.116;2023-02-28T09:09:04;11.87;;;10.60;;
769;SDS011;368;48.698;9.116;2023-02-28T09:11:32;12.53;;;11.23;;
769;SDS011;368;48.698;9.116;2023-02-28T09:13:59;13.27;;;10.30;;
769;SDS011;368;48.698;9.116;2023-02-28T09:16:29;10.47;;;9.37;;
769;SDS011;368;48.698;9.116;2023-02-28T09:18:57;11.73;;;10.47;;
769;SDS011;368;48.698;9.116;2023-02-28T09:21:24;11.67;;;9.97;;
769;SDS011;368;48.698;9.116;2023-02-28T09:23:52;14.63;;;11.20;;
769;SDS011;368;48.698;9.116;2023-02-28T09:26:19;11.83;;;10.53;;
769;SDS011;368;48.698;9.116;2023-02-28T09:28:48;13.73;;;10.97;;
769;SDS011;368;48.698;9.116;2023-02-28T09:31:16;16.50;;;9.97;;
769;SDS011;368;48.698;9.116;2023-02-28T09:33:47;14.37;;;11.23;;
769;SDS011;368;48.698;9.116;2023-02-28T09:36:14;14.60;;;10.70;;
769;SDS011;368;48.698;9.116;2023-02-28T09:38:41;12.87;;;10.70;;
769;SDS011;368;48.698;9.116;2023-02-28T09:41:12;15.63;;;11.60;;
769;SDS011;368;48.698;9.116;2023-02-28T09:43:41;12.23;;;10.83;;
769;SDS011;368;48.698;9.116;2023-02-28T09:46:14;14.10;;;11.13;;
769;SDS011;368;48.698;9.116;2023-02-28T09:48:53;10.70;;;8.97;;
769;SDS011;368;48.698;9.116;2023-02-28T09:51:30;13.10;;;10.97;;
769;SDS011;368;48.698;9.116;2023-02-28T09:54:04;12.53;;;10.47;;
769;SDS011;368;48.698;9.116;2023-02-28T09:56:32;13.23;;;11.40;;
769;SDS011;368;48.698;9.116;2023-02-28T09:59:04;12.97;;;11.23;;
769;SDS011;368;48.698;9.116;2023-02-28T10:01:38;14.73;;;11.30;;
769;SDS011;368;48.698;9.116;2023-02-28T10:04:14;12.53;;;10.27;;
769;SDS011;368;48.698;9.116;2023-02-28T10:06:50;12.23;;;10.83;;
769;SDS011;368;48.698;9.116;2023-02-28T10:09:18;12.20;;;10.70;;
769;SDS011;368;48.698;9.116;2023-02-28T10:11:49;13.57;;;9.73;;
769;SDS011;368;48.698;9.116;2023-02-28T10:14:19;11.03;;;10.03;;
769;SDS011;368;48.698;9.116;2023-02-28T10:16:48;11.67;;;10.33;;
769;SDS011;368;48.698;9.116;2023-02-28T10:19:22;15.20;;;10.60;;
769;SDS011;368;48.698;9.116;2023-02-28T10:21:54;14.13;;;10.47;;
769;SDS011;368;48.698;9.116;2023-02-28T10:24:23;12.50;;;10.80;;
769;SDS011;368;48.698;9.116;2023-02-28T10:26:56;11.40;;;10.20;;
769;SDS011;368;48.698;9.116;2023-02-28T10:29:26;11.20;;;10.10;;
769;SDS011;368;48.698;9.116;2023-02-28T10:32:01;12.30;;;10.53;;
769;SDS011;368;48.698;9.116;2023-02-28T10:34:31;12.87;;;10.43;;
769;SDS011;368;48.698;9.116;2023-02-28T10:36:58;12.73;;;10.83;;
769;SDS011;368;48.698;9.116;2023-02-28T10:39:39;12.10;;;10.80;;
769;SDS011;368;48.698;9.116;2023-02-28T10:42:18;12.00;;;10.20;;
769;SDS011;368;48.698;9.116;2023-02-28T10:44:59;12.67;;;9.67;;
769;SDS011;368;48.698;9.116;2023-02-28T10:47:31;14.50;;;10.90;;
769;SDS011;368;48.698;9.116;2023-02-28T10:50:03;11.30;;;10.20;;
769;SDS011;368;48.698;9.116;2023-02-28T10:52:35;12.20;;;10.77;;
769;SDS011;368;48.698;9.116;2023-02-28T10:55:15;13.30;;;11.07;;
769;SDS011;368;48.698;9.116;2023-02-28T10:57:46;12.97;;;11.10;;
769;SDS011;368;48.698;9.116;2023-02-28T11:00:14;15.17;;;10.80;;
769;SDS011;368;48.698;9.116;2023-02-28T11:02:44;12.60;;;11.10;;
769;SDS011;368;48.698;9.116;2023-02-28T11:05:26;12.80;;;11.50;;
769;SDS011;368;48.698;9.116;2023-02-28T11:07:55;13.07;;;10.30;;
769;SDS011;368;48.698;9.116;2023-02-28T11:10:26;12.77;;;10.20;;
769;SDS011;368;48.698;9.116;2023-02-28T11:12:57;12.00;;;10.70;;
769;SDS011;368;48.698;9.116;2023-02-28T11:15:26;12.00;;;8.23;;
769;SDS011;368;48.698;9.116;2023-02-28T11:17:54;11.97;;;9.30;;
769;SDS011;368;48.698;9.116;2023-02-28T11:20:26;11.60;;;9.90;;
769;SDS011;368;48.698;9.116;2023-02-28T11:22:55;10.90;;;9.80;;
769;SDS011;368;48.698;9.116;2023-02-28T11:25:25;12.40;;;11.10;;
769;SDS011;368;48.698;9.116;2023-02-28T11:27:55;12.13;;;10.50;;
769;SDS011;368;48.698;9.116;2023-02-28T11:30:27;12.57;;;11.37;;
769;SDS011;368;48.698;9.116;2023-02-28T11:33:23;13.30;;;10.80;;
769;SDS011;368;48.698;9.116;2023-02-28T11:35:55;10.33;;;9.33;;
769;SDS011;368;48.698;9.116;2023-02-28T11:38:25;11.10;;;10.00;;
769;SDS011;368;48.698;9.116;2023-02-28T11:40:57;10.23;;;9.33;;
769;SDS011;368;48.698;9.116;2023-02-28T11:43:37;11.50;;;10.40;;
769;SDS011;368;48.698;9.116;2023-02-28T11:46:19;11.50;;;10.30;;
769;SDS011;368;48.698;9.116;2023-02-28T11:48:58;11.23;;;10.13;;
769;SDS011;368;48.698;9.116;2023-02-28T11:51:35;12.20;;;11.03;;
769;SDS011;368;48.698;9.116;2023-02-28T11:54:25;14.13;;;10.83;;
769;SDS011;368;48.698;9.116;2023-02-28T11:57:00;10.93;;;9.83;;
769;SDS011;368;48.698;9.116;2023-02-28T11:59:38;12.83;;;11.60;;
769;SDS011;368;48.698;9.116;2023-02-28T12:02:24;11.93;;;10.83;;
769;SDS011;368;48.698;9.116;2023-02-28T12:05:08;11.80;;;10.70;;
769;SDS011;368;48.698;9.116;2023-02-28T12:07:43;11.10;;;10.00;;
769;SDS011;368;48.698;9.116;2023-02-28T12:10:20;14.00;;;12.60;;
769;SDS011;368;48.698;9.116;2023-02-28T12:12:51;14.60;;;12.20;;
769;SDS011;368;48.698;9.116;2023-02-28T12:15:32;11.27;;;10.23;;
769;SDS011;368;48.698;9.116;2023-02-28T12:18:24;12.43;;;11.20;;
769;SDS011;368;48.698;9.116;2023-02-28T12:21:02;12.60;;;11.40;;
769;SDS011;368;48.698;9.116;2023-02-28T12:23:47;12.27;;;11.13;;
769;SDS011;368;48.698;9.116;2023-02-28T12:26:28;11.90;;;10.80;;
769;SDS011;368;48.698;9.116;2023-02-28T12:29:01;11.87;;;10.70;;
769;SDS011;368;48.698;9.116;2023-02-28T12:31:37;11.53;;;10.33;;
769;SDS011;368;48.698;9.116;2023-02-28T12:34:09;12.43;;;11.27;;
769;SDS011;368;48.698;9.116;2023-02-28T12:36:40;12.00;;;10.47;;
769;SDS011;368;48.698;9.116;2023-02-28T12:39:12;11.70;;;10.50;;
769;SDS011;368;48.698;9.116;2023-02-28T12:41:46;11.10;;;10.00;;
769;SDS011;368;48.698;9.116;2023-02-28T12:44:19;10.87;;;9.77;;
769;SDS011;368;48.698;9.116;2023-02-28T12:46:56;12.40;;;11.00;;
769;SDS011;368;48.698;9.116;2023-02-28T12:49:28;10.50;;;9.60;;
769;SDS011;368;48.698;9.116;2023-02-28T12:51:57;14.13;;;10.63;;
769;SDS011;368;48.698;9.116;2023-02-28T12:54:28;11.13;;;10.07;;
769;SDS011;368;48.698;9.116;2023-02-28T12:57:02;12.57;;;10.20;;
769;SDS011;368;48.698;9.116;2023-02-28T12:59:37;11.10;;;10.10;;
769;SDS011;368;48.698;9.116;2023-02-28T13:11:25;10.90;;;9.90;;
769;SDS011;368;48.698;9.116;2023-02-28T13:13:58;11.47;;;10.43;;
769;SDS011;368;48.698;9.116;2023-02-28T13:16:27;11.57;;;10.40;;
769;SDS011;368;48.698;9.116;2023-02-28T13:19:07;12.17;;;11.07;;
769;SDS011;368;48.698;9.116;2023-02-28T13:21:41;11.47;;;10.40;;
769;SDS011;368;48.698;9.116;2023-02-28T13:24:10;12.50;;;11.40;;
769;SDS011;368;48.698;9.116;2023-02-28T13:29:50;11.73;;;10.70;;
769;SDS011;368;48.698;9.116;2023-02-28T13:32:19;12.77;;;11.67;;
769;SDS011;368;48.698;9.116;2023-02-28T13:38:12;11.57;;;10.47;;
769;SDS011;368;48.698;9.116;2023-02-28T13:40:47;12.70;;;11.40;;
769;SDS011;368;48.698;9.116;2023-02-28T13:43:17;14.00;;;11.00;;
769;SDS011;368;48.698;9.116;2023-02-28T13:48:31;11.70;;;10.60;;
769;SDS011;368;48.698;9.116;2023-02-28T13:50:58;11.03;;;10.00;;
769;SDS011;368;48.698;9.116;2023-02-28T13:53:34;10.27;;;9.33;;
769;SDS011;368;48.698;9.116;2023-02-28T13:56:27;10.87;;;9.80;;
769;SDS011;368;48.698;9.116;2023-02-28T13:59:04;12.60;;;11.33;;
769;SDS011;368;48.698;9.116;2023-02-28T14:01:45;12.43;;;11.13;;
769;SDS011;368;48.698;9.116;2023-02-28T14:04:30;11.50;;;10.40;;
769;SDS011;368;48.698;9.116;2023-02-28T14:07:18;11.80;;;10.50;;
769;SDS011;368;48.698;9.116;2023-02-28T14:09:50;11.93;;;10.73;;
769;SDS011;368;48.698;9.116;2023-02-28T14:15:31;12.33;;;11.13;;
769;SDS011;368;48.698;9.116;2023-02-28T14:21:01;12.97;;;10.60;;
769;SDS011;368;48.698;9.116;2023-02-28T14:23:39;12.03;;;10.90;;
769;SDS011;368;48.698;9.116;2023-02-28T14:26:16;11.83;;;10.63;;
769;SDS011;368;48.698;9.116;2023-02-28T14:28:56;10.67;;;9.70;;
769;SDS011;368;48.698;9.116;2023-02-28T14:31:44;13.00;;;10.90;;
769;SDS011;368;48.698;9.116;2023-02-28T14:34:20;12.10;;;10.90;;
769;SDS011;368;48.698;9.116;2023-02-28T14:36:57;11.87;;;10.67;;
769;SDS011;368;48.698;9.116;2023-02-28T14:39:26;18.83;;;11.47;;
769;SDS011;368;48.698;9.116;2023-02-28T14:41:56;12.67;;;11.37;;
769;SDS011;368;48.698;9.116;2023-02-28T14:44:28;12.07;;;10.80;;
769;SDS011;368;48.698;9.116;2023-02-28T14:46:57;12.20;;;10.30;;
769;SDS011;368;48.698;9.116;2023-02-28T14:49:29;13.97;;;12.57;;
769;SDS011;368;48.698;9.116;2023-02-28T14:52:02;11.80;;;10.70;;
769;SDS011;368;48.698;9.116;2023-02-28T14:54:34;12.70;;;11.40;;
769;SDS011;368;48.698;9.116;2023-02-28T14:57:01;11.90;;;10.73;;
769;SDS011;368;48.698;9.116;2023-02-28T14:59:29;11.33;;;10.23;;
769;SDS011;368;48.698;9.116;2023-02-28T15:02:30;11.20;;;8.80;;
769;SDS011;368;48.698;9.116;2023-02-28T15:05:10;12.30;;;11.00;;
769;SDS011;368;48.698;9.116;2023-02-28T15:07:48;11.77;;;10.47;;
769;SDS011;368;48.698;9.116;2023-02-28T15:10:16;11.40;;;10.27;;
769;SDS011;368;48.698;9.116;2023-02-28T15:12:46;11.50;;;10.40;;
769;SDS011;368;48.698;9.116;2023-02-28T15:15:18;10.83;;;9.77;;
769;SDS011;368;48.698;9.116;2023-02-28T15:17:48;10.90;;;9.90;;
769;SDS011;368;48.698;9.116;2023-02-28T15:20:18;12.70;;;11.50;;
769;SDS011;368;48.698;9.116;2023-02-28T15:22:46;11.93;;;10.50;;
769;SDS011;368;48.698;9.116;2023-02-28T15:25:18;12.60;;;11.37;;
769;SDS011;368;48.698;9.116;2023-02-28T15:27:48;12.33;;;11.13;;
769;SDS011;368;48.698;9.116;2023-02-28T15:30:18;14.77;;;10.73;;
769;SDS011;368;48.698;9.116;2023-02-28T15:33:03;13.80;;;10.77;;
769;SDS011;368;48.698;9.116;2023-02-28T15:35:34;11.00;;;9.97;;
769;SDS011;368;48.698;9.116;2023-02-28T15:38:01;10.70;;;9.70;;
769;SDS011;368;48.698;9.116;2023-02-28T15:40:31;17.07;;;10.33;;
769;SDS011;368;48.698;9.116;2023-02-28T15:43:04;11.40;;;10.30;;
769;SDS011;368;48.698;9.116;2023-02-28T15:45:33;12.47;;;11.20;;
769;SDS011;368;48.698;9.116;2023-02-28T15:48:05;12.07;;;10.23;;
769;SDS011;368;48.698;9.116;2023-02-28T15:50:40;16.13;;;12.03;;
769;SDS011;368;48.698;9.116;2023-02-28T15:53:11;13.60;;;11.27;;
769;SDS011;368;48.698;9.116;2023-02-28T15:55:40;11.73;;;10.60;;
769;SDS011;368;48.698;9.116;2023-02-28T15:58:08;10.77;;;9.57;;
769;SDS011;368;48.698;9.116;2023-02-28T16:00:38;13.40;;;10.80;;
769;SDS011;368;48.698;9.116;2023-02-28T16:08:47;16.17;;;11.37;;
769;SDS011;368;48.698;9.116;2023-02-28T16:11:16;13.63;;;11.57;;
769;SDS011;368;48.698;9.116;2023-02-28T16:13:43;15.00;;;11.60;;
769;SDS011;368;48.698;9.116;2023-02-28T16:16:14;11.73;;;10.47;;
769;SDS011;368;48.698;9.116;2023-02-28T16:18:43;13.17;;;11.53;;
769;SDS011;368;48.698;9.116;2023-02-28T16:21:10;13.70;;;11.00;;
769;SDS011;368;48.698;9.116;2023-02-28T16:23:37;12.93;;;11.43;;
769;SDS011;368;48.698;9.116;2023-02-28T16:26:04;14.10;;;11.10;;
769;SDS011;368;48.698;9.116;2023-02-28T16:28:33;14.90;;;11.87;;
769;SDS011;368;48.698;9.116;2023-02-28T16:31:02;14.07;;;12.27;;